Forside
METAR-TAF:

METAR-TAF

Lufthavne :

Reno, Nevada, USA

Breddekreds: 39-40-05N, længdekreds: 119-52-35W, højde: 1539 m

Aktuelle vejr

Denne rapport blev lavet for 19 minutter siden, kl. 07:15 UTC
Vind 16 kt fra vestsydvest med vindstød på up til 22 kt
Temperatur 9°C
Fugtighed 43%
Tryk 1020 hPa
Sigt: 16.1 km
skyfri

METAR: KRTS 290715Z AUTO 24016G22KT 10SM CLR 09/M03 A3011 RMK AO2

Tid: 23:34 (07:34 UTC)


TAF: fraværende

Vejrobservationer og prognoser fra mere end 4000 lufthavne (METAR og TAF).

De gule og røde prikker repræsenterer de meteorologiske stationer.

Flyt musen over at se navnet på stationen.

Så klik over at se vejr observationer og prognoser.

At skifte det kort: Klik på de grønne knapper med et sort kors for at zoome ind; på den grønne knap med en bindestreg for at zoome ud; eller på de grønne pile for tilstødende kort.


METAR-TAF: